createdAt,value
2022-12-18T00:00:58.184Z,62.10
2022-12-18T00:03:47.748Z,59.80
2022-12-18T00:06:19.914Z,62.70
2022-12-18T00:08:52.080Z,65.90
2022-12-18T00:11:24.778Z,61.80
2022-12-18T00:13:58.568Z,67.00
2022-12-18T00:16:33.899Z,62.30
2022-12-18T00:19:05.833Z,65.60
2022-12-18T00:21:37.439Z,56.20
2022-12-18T00:24:09.711Z,58.70
2022-12-18T00:26:41.677Z,52.60
2022-12-18T00:29:16.201Z,56.50
2022-12-18T00:31:48.150Z,55.40
2022-12-18T00:34:19.141Z,54.50
2022-12-18T00:36:51.235Z,72.80
2022-12-18T00:39:22.329Z,61.50
2022-12-18T00:42:10.995Z,53.90
2022-12-18T00:44:42.117Z,53.80
2022-12-18T00:47:13.258Z,53.70
2022-12-18T00:49:44.398Z,53.40
2022-12-18T00:52:15.418Z,54.80
2022-12-18T00:54:46.596Z,45.70
2022-12-18T00:57:17.822Z,48.60
2022-12-18T00:59:51.388Z,47.30
2022-12-18T01:02:22.899Z,58.30
2022-12-18T01:04:54.253Z,55.00
2022-12-18T01:07:25.298Z,48.00
2022-12-18T01:09:56.294Z,47.60
2022-12-18T01:12:27.438Z,49.10
2022-12-18T01:14:58.365Z,45.70
2022-12-18T01:17:29.433Z,45.10
2022-12-18T01:20:00.338Z,44.00
2022-12-18T01:22:31.477Z,47.80
2022-12-18T01:25:02.738Z,46.80
2022-12-18T01:27:35.024Z,47.20
2022-12-18T01:30:07.063Z,47.20
2022-12-18T01:32:38.133Z,53.30
2022-12-18T01:35:10.489Z,58.50
2022-12-18T01:37:41.580Z,46.50
2022-12-18T01:40:13.897Z,47.30
2022-12-18T01:42:44.893Z,49.90
2022-12-18T01:45:30.651Z,56.50
2022-12-18T01:48:03.947Z,45.90
2022-12-18T01:50:38.481Z,50.10
2022-12-18T01:53:13.547Z,41.30
2022-12-18T01:55:48.847Z,51.30
2022-12-18T01:58:21.653Z,61.80
2022-12-18T02:00:52.698Z,50.60
2022-12-18T02:03:24.020Z,63.60
2022-12-18T02:06:08.146Z,68.90
2022-12-18T02:08:46.062Z,48.40
2022-12-18T02:11:24.674Z,60.70
2022-12-18T02:14:06.142Z,63.00
2022-12-18T02:16:47.304Z,55.50
2022-12-18T02:19:57.487Z,58.20
2022-12-18T02:22:46.973Z,47.40
2022-12-18T02:25:31.200Z,47.60
2022-12-18T02:30:35.968Z,54.80
2022-12-18T02:33:09.926Z,54.90
2022-12-18T02:35:43.568Z,51.90
2022-12-18T02:38:16.442Z,54.50
2022-12-18T02:40:48.467Z,56.30
2022-12-18T02:43:19.772Z,57.50
2022-12-18T02:45:59.089Z,61.10
2022-12-18T02:48:35.291Z,56.30
2022-12-18T02:51:15.328Z,55.10
2022-12-18T02:53:53.578Z,47.10
2022-12-18T02:56:31.945Z,47.40
2022-12-18T02:59:07.860Z,45.40
2022-12-18T03:01:46.448Z,59.40
2022-12-18T03:04:23.569Z,50.10
2022-12-18T03:06:58.786Z,61.30
2022-12-18T03:09:35.115Z,59.10
2022-12-18T03:12:26.232Z,65.10
2022-12-18T03:15:03.104Z,56.30
2022-12-18T03:17:35.681Z,54.30
2022-12-18T03:20:12.651Z,55.00
2022-12-18T03:22:46.757Z,68.60
2022-12-18T03:25:19.310Z,57.90
2022-12-18T03:27:52.025Z,64.90
2022-12-18T03:30:23.686Z,52.60
2022-12-18T03:33:02.500Z,51.70
2022-12-18T03:35:37.175Z,57.50
2022-12-18T03:38:08.470Z,55.10
2022-12-18T03:40:49.735Z,59.20
2022-12-18T03:43:29.358Z,55.30
2022-12-18T03:46:09.539Z,51.30
2022-12-18T03:48:45.700Z,47.40
2022-12-18T03:51:25.718Z,60.80
2022-12-18T03:54:00.667Z,43.90
2022-12-18T03:56:34.673Z,51.00
2022-12-18T03:59:06.842Z,51.40
2022-12-18T04:01:42.349Z,51.60
2022-12-18T04:04:16.610Z,55.80
2022-12-18T04:06:49.627Z,56.30
2022-12-18T04:09:22.887Z,55.30
2022-12-18T04:11:55.143Z,59.70
2022-12-18T04:14:26.189Z,55.40
2022-12-18T04:16:57.141Z,50.20
2022-12-18T04:19:28.385Z,52.90
2022-12-18T04:21:59.847Z,41.20
2022-12-18T04:24:31.004Z,49.60
2022-12-18T04:27:02.228Z,46.30
2022-12-18T04:29:33.415Z,53.30
2022-12-18T04:32:04.379Z,46.90
2022-12-18T04:34:35.554Z,46.20
2022-12-18T04:37:06.407Z,55.70
2022-12-18T04:39:38.051Z,43.60
2022-12-18T04:42:09.071Z,40.60
2022-12-18T04:44:39.918Z,52.70
2022-12-18T04:47:11.045Z,51.60
2022-12-18T04:49:42.002Z,46.10
2022-12-18T04:52:12.892Z,47.10
2022-12-18T04:54:44.066Z,57.30
2022-12-18T04:57:15.100Z,57.40
2022-12-18T04:59:46.174Z,44.60
2022-12-18T05:02:17.308Z,55.90
2022-12-18T05:04:48.741Z,51.10
2022-12-18T05:07:19.711Z,46.80
2022-12-18T05:09:50.696Z,51.80
2022-12-18T05:12:21.780Z,45.50
2022-12-18T05:14:53.022Z,44.10
2022-12-18T05:17:24.183Z,44.60
2022-12-18T05:19:55.106Z,42.30
2022-12-18T05:22:26.946Z,46.00
2022-12-18T05:27:27.329Z,49.10
2022-12-18T05:29:58.395Z,48.10
2022-12-18T05:32:29.523Z,39.40
2022-12-18T05:35:00.676Z,44.50
2022-12-18T05:37:32.153Z,44.80
2022-12-18T05:40:03.215Z,38.00
2022-12-18T05:42:34.408Z,35.00
2022-12-18T05:45:06.044Z,34.40
2022-12-18T05:47:37.372Z,47.50
2022-12-18T05:50:10.371Z,28.10
2022-12-18T05:52:41.296Z,39.00
2022-12-18T05:55:12.681Z,25.50
2022-12-18T05:57:43.739Z,19.50
2022-12-18T06:00:17.391Z,23.10
2022-12-18T06:02:51.636Z,28.90
2022-12-18T06:05:23.098Z,37.80
2022-12-18T06:07:54.242Z,26.00
2022-12-18T06:10:25.330Z,47.40
2022-12-18T06:12:56.120Z,76.90
2022-12-18T06:15:27.000Z,29.90
2022-12-18T06:17:58.138Z,32.30
2022-12-18T06:20:33.233Z,69.00
2022-12-18T06:23:04.924Z,32.20
2022-12-18T06:25:35.899Z,23.70
2022-12-18T06:28:07.954Z,34.50
2022-12-18T06:30:38.923Z,40.70
2022-12-18T06:33:10.112Z,26.00
2022-12-18T06:35:41.280Z,33.70
2022-12-18T06:38:12.343Z,26.30
2022-12-18T06:40:43.170Z,35.00
2022-12-18T06:43:14.240Z,15.40
2022-12-18T06:45:45.320Z,18.00
2022-12-18T06:48:16.747Z,18.80
2022-12-18T06:50:47.867Z,37.40
2022-12-18T06:53:18.881Z,19.80
2022-12-18T06:55:49.919Z,23.80
2022-12-18T06:58:21.027Z,24.00
2022-12-18T07:00:52.985Z,17.90
2022-12-18T07:05:53.154Z,23.70
2022-12-18T07:08:24.335Z,16.70
2022-12-18T07:10:56.467Z,12.40
2022-12-18T07:13:27.972Z,25.60
2022-12-18T07:16:06.107Z,24.00
2022-12-18T07:18:40.034Z,15.90
2022-12-18T07:21:14.195Z,19.60
2022-12-18T07:23:45.858Z,12.90
2022-12-18T07:26:18.949Z,13.00
2022-12-18T07:28:50.935Z,23.10
2022-12-18T07:31:23.869Z,16.30
2022-12-18T07:33:55.262Z,23.20
2022-12-18T07:36:26.953Z,20.00
2022-12-18T07:41:28.167Z,17.90
2022-12-18T07:43:59.148Z,10.60
2022-12-18T07:46:29.914Z,12.60
2022-12-18T07:49:01.006Z,17.60
2022-12-18T07:51:32.096Z,25.10
2022-12-18T07:54:04.572Z,17.10
2022-12-18T07:56:35.281Z,25.80
2022-12-18T07:59:09.196Z,22.70
2022-12-18T08:01:40.211Z,19.80
2022-12-18T08:04:11.455Z,18.50
2022-12-18T08:06:46.241Z,25.00
2022-12-18T08:09:19.406Z,17.30
2022-12-18T08:11:50.291Z,23.40
2022-12-18T08:14:21.329Z,18.60
2022-12-18T08:16:52.514Z,15.10
2022-12-18T08:19:23.488Z,22.10
2022-12-18T08:21:57.180Z,17.00
2022-12-18T08:24:28.132Z,17.90
2022-12-18T08:27:27.904Z,20.00
2022-12-18T08:29:50.461Z,22.50
2022-12-18T08:32:21.503Z,26.10
2022-12-18T08:34:52.438Z,21.60
2022-12-18T08:37:23.773Z,25.00
2022-12-18T08:39:54.736Z,27.80
2022-12-18T08:42:43.435Z,23.50
2022-12-18T08:45:14.608Z,29.80
2022-12-18T08:47:45.484Z,32.50
2022-12-18T08:50:18.541Z,21.40
2022-12-18T08:52:49.578Z,19.00
2022-12-18T08:55:20.802Z,10.70
2022-12-18T08:57:53.342Z,17.90
2022-12-18T09:00:25.005Z,19.60
2022-12-18T09:02:57.126Z,30.20
2022-12-18T09:05:28.238Z,18.30
2022-12-18T09:07:59.202Z,24.30
2022-12-18T09:10:30.353Z,31.50
2022-12-18T09:13:01.620Z,30.40
2022-12-18T09:15:32.711Z,31.20
2022-12-18T09:18:03.732Z,25.90
2022-12-18T09:20:34.731Z,19.40
2022-12-18T09:23:05.618Z,21.90
2022-12-18T09:25:37.893Z,26.70
2022-12-18T09:28:15.616Z,21.90
2022-12-18T09:30:49.795Z,13.60
2022-12-18T09:33:21.345Z,14.80
2022-12-18T09:35:52.424Z,23.30
2022-12-18T09:38:24.288Z,19.10
2022-12-18T09:40:59.986Z,18.40
2022-12-18T09:43:36.356Z,22.50
2022-12-18T09:46:12.872Z,29.40
2022-12-18T09:48:48.425Z,18.90
2022-12-18T09:51:23.150Z,21.70
2022-12-18T09:53:59.582Z,22.50
2022-12-18T09:56:36.648Z,19.60
2022-12-18T09:59:08.986Z,30.20
2022-12-18T10:01:44.484Z,24.30
2022-12-18T10:04:15.695Z,16.70
2022-12-18T10:06:54.298Z,21.20
2022-12-18T10:09:36.020Z,18.70
2022-12-18T10:12:15.971Z,24.80
2022-12-18T10:14:54.140Z,24.80
2022-12-18T10:17:37.707Z,19.30
2022-12-18T10:20:18.039Z,22.00
2022-12-18T10:22:59.136Z,27.70
2022-12-18T10:25:36.773Z,26.70
2022-12-18T10:28:16.903Z,23.50
2022-12-18T10:30:47.824Z,76.20
2022-12-18T10:33:21.386Z,23.60
2022-12-18T10:35:54.647Z,24.80
2022-12-18T10:38:28.720Z,17.50
2022-12-18T10:41:01.353Z,21.60
2022-12-18T10:43:34.390Z,20.00
2022-12-18T10:46:18.737Z,19.00
2022-12-18T10:48:57.194Z,21.20
2022-12-18T10:51:31.934Z,25.50
2022-12-18T10:54:06.411Z,17.30
2022-12-18T10:56:39.082Z,20.90
2022-12-18T10:59:12.724Z,24.60
2022-12-18T11:04:11.717Z,19.60
2022-12-18T11:06:58.521Z,26.00
2022-12-18T11:09:32.814Z,22.70
2022-12-18T11:12:07.200Z,24.40
2022-12-18T11:14:49.563Z,15.20
2022-12-18T11:17:30.285Z,21.70
2022-12-18T11:20:03.631Z,17.90
2022-12-18T11:22:37.215Z,9.80
2022-12-18T11:25:32.378Z,15.30
2022-12-18T11:28:05.487Z,20.40
2022-12-18T11:30:37.927Z,21.30
2022-12-18T11:33:11.989Z,21.10
2022-12-18T11:35:51.736Z,25.80
2022-12-18T11:38:26.530Z,23.50
2022-12-18T11:41:02.662Z,21.00
2022-12-18T11:43:40.255Z,24.40
2022-12-18T11:46:19.823Z,19.30
2022-12-18T11:48:58.322Z,16.90
2022-12-18T11:51:39.561Z,12.40
2022-12-18T11:54:16.871Z,24.40
2022-12-18T11:56:51.664Z,16.00
2022-12-18T11:59:34.408Z,13.80
2022-12-18T12:02:19.746Z,16.40
2022-12-18T12:05:15.084Z,10.50
2022-12-18T12:07:56.360Z,25.20
2022-12-18T12:10:43.407Z,30.10
2022-12-18T12:13:31.522Z,26.00
2022-12-18T12:16:12.118Z,18.80
2022-12-18T12:18:58.770Z,15.20
2022-12-18T12:21:39.483Z,25.20
2022-12-18T12:24:21.832Z,22.90
2022-12-18T12:27:00.756Z,20.00
2022-12-18T12:29:45.062Z,13.20
2022-12-18T12:32:32.347Z,16.40
2022-12-18T12:35:17.801Z,26.20
2022-12-18T12:37:54.954Z,22.40
2022-12-18T12:43:29.409Z,16.80
2022-12-18T12:46:05.378Z,20.20
2022-12-18T12:48:44.618Z,18.10
2022-12-18T12:53:50.179Z,18.50
2022-12-18T12:56:24.441Z,19.80
2022-12-18T12:59:04.291Z,32.30
2022-12-18T13:01:43.617Z,26.70
2022-12-18T13:04:26.017Z,21.60
2022-12-18T13:07:05.894Z,15.70
2022-12-18T13:09:58.274Z,20.00
2022-12-18T13:12:50.029Z,31.70
2022-12-18T13:15:26.218Z,19.70
2022-12-18T13:18:21.493Z,15.60
2022-12-18T13:21:04.042Z,19.00
2022-12-18T13:23:39.749Z,40.60
2022-12-18T13:26:43.217Z,28.90
2022-12-18T13:29:33.899Z,20.10
2022-12-18T13:32:05.384Z,27.40
2022-12-18T13:37:45.710Z,18.90
2022-12-18T13:40:56.087Z,22.20
2022-12-18T13:43:35.640Z,24.00
2022-12-18T13:46:19.957Z,53.50
2022-12-18T13:48:57.331Z,42.10
2022-12-18T13:51:29.794Z,23.40
2022-12-18T13:54:03.944Z,33.00
2022-12-18T13:56:35.972Z,16.20
2022-12-18T13:59:22.284Z,24.10
2022-12-18T14:01:58.327Z,22.10
2022-12-18T14:04:33.690Z,26.00
2022-12-18T14:07:09.630Z,11.80
2022-12-18T14:09:44.642Z,21.60
2022-12-18T14:12:40.349Z,16.30
2022-12-18T14:15:26.389Z,9.70
2022-12-18T14:18:00.172Z,16.40
2022-12-18T14:20:34.007Z,11.70
2022-12-18T14:23:05.877Z,23.80
2022-12-18T14:28:17.715Z,11.80
2022-12-18T14:30:49.318Z,16.20
2022-12-18T14:33:21.957Z,21.50
2022-12-18T14:36:01.735Z,14.90
2022-12-18T14:38:34.759Z,20.80
2022-12-18T14:41:07.883Z,20.90
2022-12-18T14:43:40.874Z,11.40
2022-12-18T14:46:30.921Z,16.60
2022-12-18T14:49:03.823Z,19.10
2022-12-18T14:51:36.599Z,19.00
2022-12-18T14:54:16.548Z,23.00
2022-12-18T14:56:50.793Z,18.70
2022-12-18T14:59:25.241Z,19.20
2022-12-18T15:02:04.232Z,15.40
2022-12-18T15:04:40.327Z,20.20
2022-12-18T15:07:17.242Z,25.40
2022-12-18T15:10:05.529Z,24.20
2022-12-18T15:12:41.062Z,21.90
2022-12-18T15:15:43.430Z,24.10
2022-12-18T15:18:20.633Z,20.10
2022-12-18T15:20:54.206Z,12.10
2022-12-18T15:23:27.394Z,17.10
2022-12-18T15:26:03.415Z,17.40
2022-12-18T15:28:39.699Z,17.40
2022-12-18T15:31:26.779Z,20.30
2022-12-18T15:34:16.396Z,18.00
2022-12-18T15:36:47.292Z,21.80
2022-12-18T15:39:18.563Z,20.40
2022-12-18T15:42:07.598Z,18.40
2022-12-18T15:44:38.917Z,20.90
2022-12-18T15:47:14.515Z,27.20
2022-12-18T15:49:45.628Z,23.00
2022-12-18T15:52:26.976Z,15.70
2022-12-18T15:55:15.891Z,12.40
2022-12-18T15:57:47.230Z,22.50
2022-12-18T16:00:19.717Z,23.20
2022-12-18T16:02:50.763Z,16.20
2022-12-18T16:05:24.089Z,25.80
2022-12-18T16:07:55.151Z,23.60
2022-12-18T16:10:27.303Z,31.00
2022-12-18T16:12:58.497Z,15.90
2022-12-18T16:15:29.562Z,15.40
2022-12-18T16:18:00.667Z,20.60
2022-12-18T16:20:31.677Z,13.80
2022-12-18T16:23:02.855Z,13.10
2022-12-18T16:25:34.371Z,14.00
2022-12-18T16:28:05.356Z,5.70
2022-12-18T16:30:38.566Z,18.50
2022-12-18T16:33:10.737Z,22.00
2022-12-18T16:35:41.917Z,18.00
2022-12-18T16:38:13.984Z,22.20
2022-12-18T16:40:58.703Z,20.50
2022-12-18T16:43:29.823Z,23.90
2022-12-18T16:46:01.927Z,21.80
2022-12-18T16:48:32.876Z,12.50
2022-12-18T16:51:05.866Z,27.80
2022-12-18T16:53:36.987Z,15.90
2022-12-18T16:56:08.428Z,39.30
2022-12-18T16:58:39.307Z,11.20
2022-12-18T17:01:13.364Z,17.60
2022-12-18T17:03:45.065Z,30.80
2022-12-18T17:06:17.660Z,25.80
2022-12-18T17:08:50.270Z,18.30
2022-12-18T17:11:21.865Z,17.50
2022-12-18T17:13:53.059Z,24.60
2022-12-18T17:16:24.708Z,18.00
2022-12-18T17:21:26.172Z,14.30
2022-12-18T17:23:57.356Z,24.60
2022-12-18T17:26:28.587Z,35.60
2022-12-18T17:29:00.901Z,26.00
2022-12-18T17:31:33.097Z,18.80
2022-12-18T17:34:04.455Z,18.20
2022-12-18T17:36:35.516Z,25.40
2022-12-18T17:39:08.052Z,13.50
2022-12-18T17:41:39.251Z,27.00
2022-12-18T17:44:10.313Z,23.60
2022-12-18T17:46:43.826Z,30.60
2022-12-18T17:49:15.678Z,18.90
2022-12-18T17:51:46.594Z,36.30
2022-12-18T17:54:17.563Z,32.40
2022-12-18T17:56:49.358Z,28.10
2022-12-18T17:59:20.989Z,20.80
2022-12-18T18:01:52.078Z,23.40
2022-12-18T18:04:23.258Z,17.70
2022-12-18T18:06:54.272Z,27.20
2022-12-18T18:09:25.437Z,23.30
2022-12-18T18:12:14.684Z,25.90
2022-12-18T18:14:45.753Z,19.40
2022-12-18T18:17:16.807Z,20.80
2022-12-18T18:19:49.694Z,32.50
2022-12-18T18:22:21.223Z,29.30
2022-12-18T18:24:55.372Z,25.20
2022-12-18T18:27:26.654Z,26.90
2022-12-18T18:29:58.199Z,19.60
2022-12-18T18:32:29.373Z,23.60
2022-12-18T18:35:00.685Z,30.70
2022-12-18T18:37:31.656Z,36.20
2022-12-18T18:40:02.971Z,32.40
2022-12-18T18:42:34.117Z,31.80
2022-12-18T18:45:05.463Z,33.70
2022-12-18T18:47:36.649Z,26.90
2022-12-18T18:50:09.363Z,34.10
2022-12-18T18:52:40.593Z,31.80
2022-12-18T18:55:25.332Z,31.70
2022-12-18T18:57:57.037Z,30.80
2022-12-18T19:00:28.448Z,26.20
2022-12-18T19:03:00.911Z,31.50
2022-12-18T19:05:33.921Z,29.60
2022-12-18T19:08:05.370Z,29.10
2022-12-18T19:10:40.885Z,31.50
2022-12-18T19:13:22.338Z,30.80
2022-12-18T19:15:55.565Z,28.00
2022-12-18T19:18:27.245Z,31.30
2022-12-18T19:21:00.111Z,31.90
2022-12-18T19:23:31.887Z,29.50
2022-12-18T19:29:03.551Z,89.40
2022-12-18T19:31:36.487Z,31.40
2022-12-18T19:34:09.725Z,25.20
2022-12-18T19:36:42.190Z,27.00
2022-12-18T19:39:14.947Z,44.80
2022-12-18T19:41:46.526Z,30.50
2022-12-18T19:44:18.780Z,33.40
2022-12-18T19:46:52.649Z,27.60
2022-12-18T19:49:23.808Z,30.30
2022-12-18T19:51:55.399Z,33.00
2022-12-18T19:54:26.365Z,30.30
2022-12-18T19:56:57.693Z,28.40
2022-12-18T19:59:28.689Z,30.70
2022-12-18T20:01:59.970Z,29.70
2022-12-18T20:04:32.004Z,37.30
2022-12-18T20:09:33.290Z,27.10
2022-12-18T20:12:04.858Z,25.00
2022-12-18T20:14:35.874Z,22.40
2022-12-18T20:17:06.921Z,25.50
2022-12-18T20:19:38.221Z,27.90
2022-12-18T20:22:09.624Z,34.30
2022-12-18T20:24:40.945Z,33.50
2022-12-18T20:27:16.152Z,31.60
2022-12-18T20:29:49.657Z,27.40
2022-12-18T20:32:20.903Z,29.80
2022-12-18T20:34:52.186Z,41.10
2022-12-18T20:37:23.985Z,41.60
2022-12-18T20:39:56.388Z,53.10
2022-12-18T20:42:27.475Z,43.80
2022-12-18T20:44:58.434Z,38.70
2022-12-18T20:47:29.288Z,35.00
2022-12-18T20:50:00.966Z,44.80
2022-12-18T20:52:31.868Z,48.70
2022-12-18T20:55:03.038Z,48.40
2022-12-18T20:57:34.014Z,53.70
2022-12-18T21:00:07.272Z,138.80
2022-12-18T21:02:38.714Z,115.50
2022-12-18T21:05:10.834Z,80.20
2022-12-18T21:07:41.812Z,57.00
2022-12-18T21:10:13.015Z,26.70
2022-12-18T21:12:58.866Z,37.30
2022-12-18T21:15:31.074Z,33.30
2022-12-18T21:18:01.879Z,35.20
2022-12-18T21:20:32.977Z,35.10
2022-12-18T21:23:16.595Z,31.90
2022-12-18T21:25:48.353Z,38.50
2022-12-18T21:28:25.742Z,38.70
2022-12-18T21:30:57.998Z,61.40
2022-12-18T21:35:58.514Z,48.10
2022-12-18T21:38:30.432Z,66.80
2022-12-18T21:41:01.640Z,60.40
2022-12-18T21:43:50.278Z,43.50
2022-12-18T21:46:21.306Z,39.60
2022-12-18T21:48:52.424Z,43.90
2022-12-18T21:51:23.254Z,52.90
2022-12-18T21:53:54.123Z,42.40
2022-12-18T21:56:25.115Z,49.00
2022-12-18T21:58:56.833Z,43.90
2022-12-18T22:01:32.706Z,63.00
2022-12-18T22:04:08.953Z,57.70
2022-12-18T22:06:40.060Z,54.00
2022-12-18T22:09:12.507Z,66.60
2022-12-18T22:11:43.842Z,88.70
2022-12-18T22:14:15.022Z,66.20
2022-12-18T22:16:46.684Z,40.70
2022-12-18T22:19:17.865Z,41.10
2022-12-18T22:21:50.381Z,48.60
2022-12-18T22:24:22.603Z,43.60
2022-12-18T22:27:01.631Z,47.80
2022-12-18T22:29:50.985Z,56.40
2022-12-18T22:32:30.781Z,54.60
2022-12-18T22:35:08.381Z,53.80
2022-12-18T22:37:41.583Z,51.40
2022-12-18T22:40:23.881Z,49.70
2022-12-18T22:42:56.064Z,54.80
2022-12-18T22:45:27.898Z,52.40
2022-12-18T22:47:58.826Z,54.20
2022-12-18T22:50:30.200Z,58.30
2022-12-18T22:53:01.357Z,73.40
2022-12-18T22:55:32.256Z,57.80
2022-12-18T22:58:03.375Z,53.30
2022-12-18T23:00:34.702Z,46.90
2022-12-18T23:03:07.301Z,44.80
2022-12-18T23:05:38.341Z,39.50
2022-12-18T23:08:09.314Z,32.90
2022-12-18T23:10:41.245Z,36.80
2022-12-18T23:13:12.447Z,42.60
2022-12-18T23:15:45.198Z,35.90
2022-12-18T23:18:16.208Z,42.40
2022-12-18T23:20:47.251Z,66.50
2022-12-18T23:23:18.601Z,54.10
2022-12-18T23:25:49.912Z,31.90
2022-12-18T23:28:20.817Z,32.50
2022-12-18T23:30:51.987Z,33.70
2022-12-18T23:33:23.077Z,36.80
2022-12-18T23:35:58.558Z,44.30
2022-12-18T23:38:29.454Z,53.90
2022-12-18T23:41:00.875Z,61.60
2022-12-18T23:43:32.046Z,65.50
2022-12-18T23:46:03.117Z,67.00
2022-12-18T23:48:34.279Z,54.00
2022-12-18T23:51:10.198Z,75.60
2022-12-18T23:53:41.345Z,63.40
2022-12-18T23:56:13.990Z,71.60
2022-12-18T23:58:45.654Z,72.40
